Time;durP1;ratioP1;P1;durP2;ratioP2;P2;SDS_P1;SDS_P2;PMS_P1;PMS_P2;Temp;Humidity;BMP_temperature;BMP_pressure;BME280_temperature;BME280_humidity;BME280_pressure;Samples;Min_cycle;Max_cycle;Signal;HPM_P1;HPM_P2
2021/04/28 00:02:37;;;;;;;8.00;4.95;;;10.80;52.80;;;;;;5105607;28;27488;-48
2021/04/28 00:06:05;;;;;;;8.57;5.07;;;10.70;52.70;;;;;;5103886;28;27413;-50
2021/04/28 00:09:53;;;;;;;8.90;4.38;;;10.70;52.80;;;;;;5106141;28;27327;-48
2021/04/28 00:13:34;;;;;;;5.72;4.38;;;10.60;52.90;;;;;;5105633;28;27391;-49
2021/04/28 00:17:25;;;;;;;6.18;4.40;;;10.50;53.10;;;;;;5102675;28;27884;-45
2021/04/28 00:20:53;;;;;;;10.98;4.75;;;10.50;53.10;;;;;;5106055;28;27547;-49
2021/04/28 00:24:25;;;;;;;9.25;3.97;;;10.40;53.30;;;;;;5102236;28;27414;-46
2021/04/28 00:27:53;;;;;;;6.47;4.72;;;10.40;53.40;;;;;;5106112;28;27377;-45
2021/04/28 00:31:34;;;;;;;6.85;4.63;;;10.30;53.30;;;;;;5105967;28;28034;-50
2021/04/28 00:35:23;;;;;;;6.72;4.57;;;10.30;53.50;;;;;;5102420;28;27561;-48
2021/04/28 00:38:53;;;;;;;11.35;4.38;;;10.30;53.50;;;;;;5102721;28;27358;-47
2021/04/28 00:42:28;;;;;;;7.20;3.70;;;10.20;53.50;;;;;;5105621;28;27419;-49
2021/04/28 00:45:42;;;;;;;7.90;3.95;;;10.20;53.60;;;;;;5102150;28;27635;-48
2021/04/28 00:48:55;;;;;;;5.68;4.22;;;10.10;53.60;;;;;;5104709;28;27468;-46
2021/04/28 00:52:03;;;;;;;6.18;4.90;;;10.10;53.80;;;;;;5105117;28;27426;-48
2021/04/28 00:55:30;;;;;;;7.45;4.63;;;10.00;53.80;;;;;;5101286;28;27471;-51
2021/04/28 00:59:26;;;;;;;6.30;4.40;;;10.00;53.90;;;;;;5102110;28;27404;-47
2021/04/28 01:02:54;;;;;;;5.68;4.30;;;10.00;54.00;;;;;;5101924;28;27441;-48
2021/04/28 01:06:12;;;;;;;5.38;4.03;;;10.00;53.90;;;;;;5102176;28;27461;-48
2021/04/28 01:09:39;;;;;;;8.57;4.75;;;10.00;53.90;;;;;;5104647;28;27630;-48
2021/04/28 01:13:14;;;;;;;7.30;4.80;;;10.00;53.90;;;;;;5105132;28;27453;-46
2021/04/28 01:16:53;;;;;;;5.82;4.40;;;10.00;53.90;;;;;;5102059;28;27408;-50
2021/04/28 01:20:05;;;;;;;8.52;4.13;;;9.90;53.70;;;;;;5103927;28;27430;-47
2021/04/28 01:23:20;;;;;;;6.30;4.75;;;9.90;53.90;;;;;;5103271;28;27426;-48
2021/04/28 01:26:50;;;;;;;8.07;4.80;;;9.90;54.00;;;;;;5100787;28;27845;-47
2021/04/28 01:30:23;;;;;;;9.15;5.30;;;9.80;54.20;;;;;;5100663;28;27379;-47
2021/04/28 01:33:34;;;;;;;9.68;4.28;;;9.70;54.20;;;;;;5086740;28;27369;-50
2021/04/28 01:36:24;;;;;;;6.88;4.38;;;9.70;54.40;;;;;;5104486;28;27419;-46
2021/04/28 01:39:32;;;;;;;9.13;4.40;;;9.60;54.50;;;;;;5100471;28;27401;-46
2021/04/28 01:42:58;;;;;;;15.30;4.50;;;9.60;54.50;;;;;;5101903;28;27398;-46
2021/04/28 01:46:25;;;;;;;9.43;4.40;;;9.50;54.70;;;;;;5102568;28;27621;-46
2021/04/28 01:49:33;;;;;;;9.52;4.88;;;9.40;54.80;;;;;;5103204;28;27672;-46
2021/04/28 01:52:38;;;;;;;15.15;4.35;;;9.40;55.50;;;;;;5102140;28;27329;-45
2021/04/28 01:55:41;;;;;;;10.95;4.82;;;9.40;54.90;;;;;;5086177;28;27398;-45
2021/04/28 01:59:27;;;;;;;9.13;4.53;;;9.30;54.80;;;;;;5103546;28;27435;-48
2021/04/28 02:03:01;;;;;;;10.02;5.45;;;9.30;54.90;;;;;;5103841;28;27715;-46
2021/04/28 02:06:14;;;;;;;11.82;4.63;;;9.30;55.00;;;;;;5100931;28;27947;-45
2021/04/28 02:09:20;;;;;;;7.95;4.75;;;9.20;54.90;;;;;;5100192;28;27532;-46
2021/04/28 02:12:24;;;;;;;8.30;4.60;;;9.20;55.00;;;;;;5085832;28;27412;-46
2021/04/28 02:15:25;;;;;;;8.70;5.22;;;9.20;55.00;;;;;;5098852;27;27372;-50
2021/04/28 02:18:33;;;;;;;8.13;5.18;;;9.20;55.00;;;;;;5085861;28;27335;-45
2021/04/28 02:22:01;;;;;;;7.78;4.93;;;9.20;55.10;;;;;;5102680;28;27489;-45
2021/04/28 02:25:19;;;;;;;9.48;4.47;;;9.10;55.10;;;;;;5100833;28;27371;-45
2021/04/28 02:28:39;;;;;;;6.95;4.40;;;9.10;55.10;;;;;;5100648;28;27404;-48
2021/04/28 02:32:07;;;;;;;11.32;5.07;;;9.10;54.90;;;;;;5099748;28;27399;-44
2021/04/28 02:36:17;;;;;;;6.47;4.65;;;9.00;55.20;;;;;;5074993;27;27476;-46
2021/04/28 02:40:08;;;;;;;6.90;4.72;;;8.90;55.40;;;;;;5100735;28;27376;-49
2021/04/28 02:43:48;;;;;;;12.23;5.15;;;8.80;55.50;;;;;;5100274;28;27422;-45
2021/04/28 02:47:22;;;;;;;10.30;6.15;;;8.80;55.60;;;;;;5102965;28;27961;-46
2021/04/28 02:50:50;;;;;;;7.25;5.13;;;8.80;55.70;;;;;;5101641;28;27400;-47
2021/04/28 02:54:26;;;;;;;7.45;5.10;;;8.80;55.70;;;;;;5099634;28;27409;-45
2021/04/28 02:58:18;;;;;;;8.00;5.75;;;8.70;55.60;;;;;;5099805;28;27461;-49
2021/04/28 03:02:01;;;;;;;11.88;5.60;;;8.70;55.70;;;;;;5100128;28;27409;-45
2021/04/28 03:05:48;;;;;;;7.22;5.25;;;8.70;55.80;;;;;;5100523;28;27367;-46
2021/04/28 03:09:14;;;;;;;6.90;5.03;;;8.60;55.70;;;;;;5099716;28;27497;-46
2021/04/28 03:12:35;;;;;;;8.63;5.22;;;8.60;55.90;;;;;;5099140;28;27473;-46
2021/04/28 03:16:05;;;;;;;10.85;4.82;;;8.60;56.10;;;;;;5103045;28;27510;-45
2021/04/28 03:19:37;;;;;;;8.07;5.15;;;8.60;56.00;;;;;;5099986;28;27472;-51
2021/04/28 03:23:12;;;;;;;6.68;5.57;;;8.50;56.00;;;;;;5103316;28;27432;-51
2021/04/28 03:26:40;;;;;;;7.97;4.88;;;8.50;56.10;;;;;;5101665;27;27305;-46
2021/04/28 03:30:38;;;;;;;13.23;4.72;;;8.40;56.10;;;;;;5106100;28;27646;-49
2021/04/28 03:33:31;;;;;;;7.57;4.97;;;8.30;56.20;;;;;;5106463;28;27378;-47
2021/04/28 03:36:50;;;;;;;7.60;5.20;;;8.30;56.40;;;;;;5103504;28;27461;-47
2021/04/28 03:40:08;;;;;;;6.97;4.90;;;8.20;56.40;;;;;;5104848;28;27431;-47
2021/04/28 03:43:36;;;;;;;12.32;5.10;;;8.20;56.60;;;;;;5102494;28;27488;-49
2021/04/28 03:47:20;;;;;;;7.63;5.07;;;8.20;56.60;;;;;;5102904;28;27407;-47
2021/04/28 03:50:55;;;;;;;8.30;5.68;;;8.20;56.60;;;;;;5103976;28;27479;-46
2021/04/28 03:54:06;;;;;;;11.38;4.90;;;8.10;56.70;;;;;;5104076;28;27505;-48
2021/04/28 03:57:20;;;;;;;10.13;5.30;;;8.10;56.70;;;;;;5104280;28;27860;-47
2021/04/28 04:00:35;;;;;;;9.25;4.95;;;8.10;56.60;;;;;;5105857;28;27499;-46
2021/04/28 04:04:16;;;;;;;8.70;5.68;;;8.10;56.60;;;;;;5103094;28;27391;-47
2021/04/28 04:08:02;;;;;;;7.68;5.13;;;8.00;56.60;;;;;;5105993;28;27469;-49
2021/04/28 04:12:09;;;;;;;13.20;5.47;;;8.10;56.60;;;;;;5102348;28;27422;-49
2021/04/28 04:16:15;;;;;;;11.60;5.53;;;8.10;56.70;;;;;;5102665;28;27413;-49
2021/04/28 04:19:49;;;;;;;10.70;5.18;;;8.00;56.70;;;;;;5101914;28;27458;-47
2021/04/28 04:23:29;;;;;;;15.68;6.95;;;8.00;56.70;;;;;;5102718;28;27419;-48
2021/04/28 04:27:14;;;;;;;9.63;5.43;;;8.00;56.90;;;;;;5103633;28;27609;-46
2021/04/28 04:30:52;;;;;;;14.02;5.68;;;8.00;57.00;;;;;;5105395;28;27485;-47
2021/04/28 04:34:42;;;;;;;7.05;5.20;;;7.90;57.00;;;;;;5093412;27;27521;-46
2021/04/28 04:38:06;;;;;;;16.90;6.18;;;7.90;57.20;;;;;;5104730;27;26960;-46
2021/04/28 04:41:40;;;;;;;5.90;4.85;;;7.90;57.20;;;;;;5102558;28;27354;-45
2021/04/28 04:45:00;;;;;;;7.55;5.40;;;7.80;57.30;;;;;;5101993;28;27428;-48
2021/04/28 04:48:26;;;;;;;10.30;5.28;;;7.80;57.40;;;;;;5101418;28;27473;-45
2021/04/28 04:51:40;;;;;;;8.35;5.40;;;7.80;57.50;;;;;;5102133;28;27445;-44
2021/04/28 04:55:08;;;;;;;11.57;5.35;;;7.80;57.50;;;;;;5104797;28;27503;-44
2021/04/28 04:58:40;;;;;;;11.63;5.25;;;7.80;57.70;;;;;;5105300;28;27367;-50
2021/04/28 05:02:07;;;;;;;11.45;5.93;;;7.80;57.60;;;;;;5105742;28;27480;-48
2021/04/28 05:05:34;;;;;;;11.48;5.35;;;7.80;57.50;;;;;;5106495;28;27480;-46
2021/04/28 05:09:21;;;;;;;15.82;6.30;;;7.80;57.30;;;;;;5106246;28;27354;-45
2021/04/28 05:13:03;;;;;;;12.65;6.15;;;7.80;57.20;;;;;;5103083;28;27488;-46
2021/04/28 05:16:30;;;;;;;8.63;5.53;;;7.80;57.70;;;;;;5106557;28;27427;-45
2021/04/28 05:19:48;;;;;;;16.08;5.57;;;7.90;58.00;;;;;;5106224;28;27344;-46
2021/04/28 05:23:14;;;;;;;10.50;6.15;;;7.90;58.00;;;;;;5102713;28;27478;-46
2021/04/28 05:26:24;;;;;;;9.68;6.32;;;8.00;58.10;;;;;;5102988;28;27388;-45
2021/04/28 05:29:22;;;;;;;9.15;6.70;;;8.00;58.30;;;;;;5106327;28;27414;-46
2021/04/28 05:32:54;;;;;;;13.85;7.22;;;8.00;58.50;;;;;;5105608;28;27447;-50
2021/04/28 05:36:36;;;;;;;9.30;5.75;;;8.10;58.40;;;;;;5106048;28;27414;-47
2021/04/28 05:40:23;;;;;;;8.93;6.53;;;8.20;58.50;;;;;;5105447;28;27465;-48
2021/04/28 05:43:21;;;;;;;10.23;6.68;;;8.20;58.20;;;;;;5105203;28;27325;-47
2021/04/28 05:46:29;;;;;;;12.02;7.53;;;8.40;57.90;;;;;;5105978;28;27375;-47
2021/04/28 05:49:27;;;;;;;12.48;6.88;;;8.40;57.90;;;;;;5104403;27;27953;-49
2021/04/28 05:52:29;;;;;;;10.57;7.07;;;8.60;57.80;;;;;;5105960;28;27469;-46
2021/04/28 05:55:56;;;;;;;9.57;6.68;;;8.60;58.10;;;;;;5105950;28;27446;-45
2021/04/28 05:59:24;;;;;;;11.95;6.22;;;8.70;58.30;;;;;;5105552;28;27450;-48
2021/04/28 06:02:32;;;;;;;12.55;7.03;;;8.70;58.20;;;;;;5104823;28;28704;-47
2021/04/28 06:06:00;;;;;;;13.02;7.57;;;8.80;57.90;;;;;;5105424;28;27343;-51
2021/04/28 06:09:32;;;;;;;11.05;6.28;;;8.90;58.10;;;;;;5105481;28;27512;-48
2021/04/28 06:12:46;;;;;;;11.90;7.53;;;9.10;58.30;;;;;;5105379;28;27396;-49
2021/04/28 06:15:54;;;;;;;17.45;6.93;;;9.20;57.80;;;;;;5103045;28;27446;-46
2021/04/28 06:19:15;;;;;;;13.48;6.97;;;9.30;58.00;;;;;;5101936;28;27417;-46
2021/04/28 06:22:08;;;;;;;14.75;7.97;;;9.50;58.00;;;;;;5105213;28;27332;-46
2021/04/28 06:25:35;;;;;;;11.93;7.55;;;9.60;57.50;;;;;;5105172;28;27375;-47
2021/04/28 06:28:39;;;;;;;13.23;6.68;;;9.80;57.70;;;;;;5101052;28;27332;-51
2021/04/28 06:32:06;;;;;;;11.70;7.43;;;10.20;57.10;;;;;;5105319;28;27324;-46
2021/04/28 06:35:25;;;;;;;12.40;7.43;;;10.60;56.30;;;;;;5104622;28;27394;-46
2021/04/28 06:38:52;;;;;;;13.00;7.40;;;11.10;55.80;;;;;;5104116;28;27603;-50
2021/04/28 06:42:06;;;;;;;10.23;7.32;;;11.40;55.70;;;;;;5104452;28;27860;-47
2021/04/28 06:45:34;;;;;;;12.20;6.93;;;11.90;55.00;;;;;;5104273;28;27461;-50
2021/04/28 06:49:38;;;;;;;13.90;7.82;;;12.30;54.10;;;;;;5101449;28;27404;-49
2021/04/28 06:53:06;;;;;;;10.63;7.07;;;12.80;53.00;;;;;;5103677;28;27505;-48
2021/04/28 06:56:04;;;;;;;12.45;7.45;;;13.20;52.10;;;;;;5104855;28;27320;-47
2021/04/28 06:59:02;;;;;;;11.27;7.43;;;13.50;51.10;;;;;;5104594;28;27450;-51
2021/04/28 07:02:29;;;;;;;11.02;6.85;;;13.80;50.70;;;;;;5103909;28;27477;-48
2021/04/28 07:06:19;;;;;;;12.70;8.40;;;14.10;50.60;;;;;;5101072;28;27324;-49
2021/04/28 07:09:14;;;;;;;13.25;7.68;;;14.50;49.70;;;;;;5102771;28;27926;-48
2021/04/28 07:12:20;;;;;;;10.52;7.80;;;14.80;49.20;;;;;;5104488;28;27481;-49
2021/04/28 07:15:25;;;;;;;13.07;8.00;;;15.20;49.50;;;;;;5104441;28;27423;-48
2021/04/28 07:18:53;;;;;;;14.27;8.30;;;15.60;48.20;;;;;;5104370;28;27441;-51
2021/04/28 07:22:11;;;;;;;12.32;8.32;;;15.90;47.90;;;;;;5104092;28;27412;-48
2021/04/28 07:25:24;;;;;;;13.13;8.27;;;16.30;46.90;;;;;;5104288;28;27440;-50
2021/04/28 07:28:37;;;;;;;12.10;6.90;;;16.50;46.10;;;;;;5104274;28;27454;-51
2021/04/28 07:31:50;;;;;;;12.95;8.25;;;16.70;45.60;;;;;;5104195;28;27419;-48
2021/04/28 07:35:03;;;;;;;12.32;8.00;;;17.00;45.40;;;;;;5104106;28;27930;-53
2021/04/28 07:38:35;;;;;;;9.93;7.97;;;17.20;45.00;;;;;;5103034;28;27434;-52
2021/04/28 07:41:56;;;;;;;11.18;7.85;;;17.50;45.40;;;;;;5103595;28;27390;-48
2021/04/28 07:45:02;;;;;;;14.50;9.00;;;17.80;44.80;;;;;;5103988;28;27429;-49
2021/04/28 07:48:07;;;;;;;12.07;8.98;;;18.00;43.20;;;;;;5103943;28;27469;-52
2021/04/28 07:51:18;;;;;;;11.75;8.18;;;18.20;42.80;;;;;;5103280;28;27435;-51
2021/04/28 07:54:20;;;;;;;15.95;9.07;;;18.40;43.30;;;;;;5102491;28;27437;-54
2021/04/28 07:57:48;;;;;;;12.82;8.70;;;18.70;44.70;;;;;;5085844;28;27435;-52
2021/04/28 08:01:40;;;;;;;13.30;7.95;;;18.90;43.60;;;;;;5100306;28;27327;-54
2021/04/28 08:04:54;;;;;;;16.13;9.52;;;19.30;43.00;;;;;;5103277;28;27332;-51
2021/04/28 08:07:53;;;;;;;13.38;8.98;;;19.60;43.90;;;;;;5100590;28;27378;-53
2021/04/28 08:11:19;;;;;;;15.18;9.60;;;19.80;43.70;;;;;;5104031;28;27427;-53
2021/04/28 08:14:32;;;;;;;12.52;9.27;;;20.10;42.00;;;;;;5106655;27;27399;-54
2021/04/28 08:18:03;;;;;;;17.88;10.65;;;20.40;43.20;;;;;;5107162;28;27335;-55
2021/04/28 08:21:09;;;;;;;15.32;10.43;;;20.70;42.20;;;;;;5105656;28;27370;-55
2021/04/28 08:24:23;;;;;;;14.32;9.75;;;21.00;41.00;;;;;;5106179;28;27344;-55
2021/04/28 08:27:36;;;;;;;19.55;10.75;;;21.30;41.30;;;;;;5106986;28;27452;-54
2021/04/28 08:31:02;;;;;;;13.25;9.77;;;21.50;39.10;;;;;;5106999;28;27561;-54
2021/04/28 08:34:23;;;;;;;16.77;10.43;;;21.70;39.10;;;;;;5105942;28;27404;-55
2021/04/28 08:37:36;;;;;;;14.93;9.43;;;22.00;40.20;;;;;;5106875;28;27481;-55
2021/04/28 08:41:07;;;;;;;19.38;9.65;;;22.20;40.80;;;;;;5106753;28;27915;-54
2021/04/28 08:44:35;;;;;;;17.23;11.45;;;22.50;39.10;;;;;;5106143;28;27461;-55
2021/04/28 08:48:27;;;;;;;16.73;11.13;;;22.70;39.00;;;;;;5104726;28;27569;-55
2021/04/28 08:51:48;;;;;;;15.70;11.50;;;23.00;39.10;;;;;;5103364;28;27348;-56
2021/04/28 08:55:01;;;;;;;19.25;11.20;;;23.10;38.10;;;;;;5107047;28;27513;-55
2021/04/28 08:58:07;;;;;;;20.40;10.77;;;23.30;38.10;;;;;;5106587;28;27424;-57
2021/04/28 09:01:49;;;;;;;14.82;10.50;;;23.50;38.20;;;;;;5105786;28;27367;-57
2021/04/28 09:05:06;;;;;;;19.13;11.68;;;23.70;38.30;;;;;;5105892;28;27425;-57
2021/04/28 09:08:48;;;;;;;15.75;11.10;;;24.00;36.70;;;;;;5102785;28;27860;-58
2021/04/28 09:11:48;;;;;;;14.18;10.70;;;24.20;36.90;;;;;;5106537;28;27461;-57
2021/04/28 09:14:45;;;;;;;16.77;9.75;;;24.40;36.00;;;;;;5103322;28;27478;-57
2021/04/28 09:17:29;;;;;;;14.00;10.77;;;24.50;36.40;;;;;;5103194;28;26837;-58
2021/04/28 09:20:48;;;;;;;14.45;10.35;;;24.70;35.00;;;;;;5105375;28;27419;-58
2021/04/28 09:24:16;;;;;;;11.98;9.45;;;24.80;34.30;;;;;;5105780;27;27418;-58
2021/04/28 09:27:55;;;;;;;9.88;8.20;;;24.90;36.20;;;;;;5105389;28;27639;-58
2021/04/28 09:31:10;;;;;;;16.00;10.18;;;25.00;37.50;;;;;;5100897;27;27470;-58
2021/04/28 09:33:59;;;;;;;14.48;9.98;;;25.10;34.10;;;;;;5105507;28;27486;-58
2021/04/28 09:37:09;;;;;;;17.48;8.65;;;25.10;33.50;;;;;;5105879;28;27356;-58
2021/04/28 09:40:36;;;;;;;12.70;8.68;;;25.10;34.60;;;;;;5105339;28;27517;-58
2021/04/28 09:43:46;;;;;;;11.20;8.20;;;25.10;33.50;;;;;;5102334;28;27536;-58
2021/04/28 09:47:14;;;;;;;10.75;5.53;;;25.20;33.10;;;;;;5106017;28;27820;-58
2021/04/28 09:50:27;;;;;;;9.43;6.03;;;25.30;32.90;;;;;;5104141;28;27356;-58
2021/04/28 09:53:50;;;;;;;9.65;4.80;;;25.30;32.10;;;;;;5104989;28;27349;-58
2021/04/28 09:56:56;;;;;;;8.98;5.22;;;25.40;31.30;;;;;;5104554;28;27574;-58
2021/04/28 09:59:47;;;;;;;6.45;4.75;;;25.50;32.00;;;;;;5105737;28;27336;-58
2021/04/28 10:02:55;;;;;;;5.82;4.43;;;25.70;32.70;;;;;;5105675;28;27426;-59
2021/04/28 10:06:08;;;;;;;5.15;3.88;;;25.90;34.00;;;;;;5105127;28;27356;-58
2021/04/28 10:09:23;;;;;;;8.13;4.05;;;26.00;34.70;;;;;;5105422;28;27401;-58
2021/04/28 10:12:37;;;;;;;7.07;4.10;;;26.10;35.40;;;;;;5104190;28;27398;-58
2021/04/28 10:16:06;;;;;;;6.18;5.03;;;26.20;34.30;;;;;;5102319;28;27407;-58
2021/04/28 10:19:40;;;;;;;6.20;4.28;;;26.20;33.20;;;;;;5104918;28;27406;-58
2021/04/28 10:23:07;;;;;;;6.38;4.90;;;26.30;35.40;;;;;;5104745;28;27374;-58
2021/04/28 10:27:07;;;;;;;7.35;5.03;;;26.30;34.50;;;;;;5104341;28;27868;-58
2021/04/28 10:30:16;;;;;;;5.05;3.78;;;26.20;34.20;;;;;;5090281;28;27502;-60
2021/04/28 10:33:24;;;;;;;5.57;4.50;;;26.20;34.80;;;;;;5105376;28;27350;-58
2021/04/28 10:36:22;;;;;;;7.30;3.60;;;26.20;35.20;;;;;;5103892;28;27480;-58
2021/04/28 10:39:50;;;;;;;6.10;3.85;;;26.30;35.70;;;;;;5104420;28;27417;-58
2021/04/28 10:43:36;;;;;;;6.45;3.85;;;26.30;35.50;;;;;;5104824;28;27430;-58
2021/04/28 10:46:41;;;;;;;6.88;4.18;;;26.20;34.40;;;;;;5105122;28;27356;-58
2021/04/28 10:49:58;;;;;;;5.35;3.90;;;26.20;33.80;;;;;;5103405;28;27331;-58
2021/04/28 10:52:50;;;;;;;3.63;3.08;;;26.20;33.30;;;;;;5104696;28;27946;-59
2021/04/28 10:55:46;;;;;;;5.75;3.75;;;26.20;35.20;;;;;;5104940;28;27406;-58
2021/04/28 10:59:30;;;;;;;4.47;3.58;;;26.30;36.50;;;;;;5104673;28;27340;-58
2021/04/28 11:02:58;;;;;;;7.65;3.60;;;26.40;33.10;;;;;;5104901;28;26918;-58
2021/04/28 11:06:24;;;;;;;6.45;3.72;;;26.40;33.50;;;;;;5104512;28;27386;-58
2021/04/28 11:09:31;;;;;;;4.60;3.08;;;26.40;35.00;;;;;;5104416;28;27438;-59
2021/04/28 11:12:59;;;;;;;4.53;3.65;;;26.50;37.80;;;;;;5104510;28;27501;-59
2021/04/28 11:16:38;;;;;;;4.20;3.40;;;26.60;36.20;;;;;;5101127;28;27447;-58
2021/04/28 11:19:28;;;;;;;5.53;3.58;;;26.60;35.60;;;;;;5104539;28;27915;-59
2021/04/28 11:22:21;;;;;;;8.52;3.80;;;26.60;36.10;;;;;;5104341;28;27462;-59
2021/04/28 11:25:11;;;;;;;3.50;2.80;;;26.70;37.70;;;;;;5104350;28;27453;-59
2021/04/28 11:28:03;;;;;;;7.78;2.72;;;26.70;38.00;;;;;;5104311;28;27381;-58
2021/04/28 11:31:31;;;;;;;4.43;3.17;;;26.80;37.40;;;;;;5104184;28;27386;-59
2021/04/28 11:34:31;;;;;;;8.88;3.00;;;26.80;36.70;;;;;;5102286;28;27359;-58
2021/04/28 11:37:29;;;;;;;5.72;2.90;;;26.80;36.10;;;;;;5104559;28;27465;-58
2021/04/28 11:41:00;;;;;;;4.63;3.03;;;26.80;36.70;;;;;;5104222;28;27324;-58
2021/04/28 11:43:57;;;;;;;7.50;3.35;;;26.80;36.60;;;;;;5100547;28;27372;-58
2021/04/28 11:46:53;;;;;;;12.20;4.22;;;26.70;37.10;;;;;;5100700;28;27520;-58
2021/04/28 11:50:03;;;;;;;4.70;3.70;;;26.70;27.20;;;;;;5106923;28;27632;-56
2021/04/28 11:53:10;;;;;;;8.38;3.60;;;26.40;26.00;;;;;;5106659;28;27512;-55
2021/04/28 11:56:36;;;;;;;6.38;3.25;;;26.20;23.90;;;;;;5107568;28;27485;-55
2021/04/28 11:59:28;;;;;;;5.38;3.33;;;25.90;24.60;;;;;;5107220;28;27442;-55
2021/04/28 12:02:45;;;;;;;7.15;3.95;;;25.70;23.50;;;;;;5107807;28;27336;-55
2021/04/28 12:05:54;;;;;;;7.40;3.95;;;25.60;23.60;;;;;;5107360;28;27411;-54
2021/04/28 12:09:09;;;;;;;9.30;4.22;;;25.50;22.80;;;;;;5107619;28;27349;-55
2021/04/28 12:12:16;;;;;;;7.05;3.15;;;25.50;23.40;;;;;;5106803;28;27429;-54
2021/04/28 12:16:03;;;;;;;4.75;4.03;;;25.30;23.40;;;;;;5103710;28;27378;-55
2021/04/28 12:19:30;;;;;;;6.35;3.38;;;25.20;22.70;;;;;;5106486;28;27402;-55
2021/04/28 12:22:38;;;;;;;3.10;2.45;;;25.10;24.10;;;;;;5107013;28;27526;-58
2021/04/28 12:25:44;;;;;;;3.47;2.72;;;25.00;26.60;;;;;;5105775;28;27463;-59
2021/04/28 12:28:51;;;;;;;11.57;3.00;;;25.00;30.00;;;;;;5107012;28;27431;-60
2021/04/28 12:32:07;;;;;;;3.70;3.03;;;25.10;32.70;;;;;;5107209;28;27316;-60
2021/04/28 12:35:20;;;;;;;4.63;2.42;;;25.10;31.10;;;;;;5105872;28;27385;-59
2021/04/28 12:38:16;;;;;;;6.22;2.53;;;25.10;26.50;;;;;;5106534;28;27482;-59
2021/04/28 12:41:07;;;;;;;5.47;3.17;;;25.00;26.50;;;;;;5106828;28;27355;-59
2021/04/28 12:44:06;;;;;;;8.13;2.92;;;25.00;26.40;;;;;;5105834;28;27514;-58
2021/04/28 12:47:04;;;;;;;3.85;2.92;;;25.00;26.90;;;;;;5106997;28;27849;-58
2021/04/28 12:50:42;;;;;;;8.80;3.30;;;25.00;25.90;;;;;;5103334;28;27560;-57
2021/04/28 12:53:38;;;;;;;6.43;3.22;;;24.90;26.70;;;;;;5106524;28;27469;-57
2021/04/28 12:56:49;;;;;;;7.75;3.20;;;24.80;26.20;;;;;;5105939;28;27435;-57
2021/04/28 13:00:11;;;;;;;4.32;2.72;;;24.60;25.20;;;;;;5104831;28;27614;-60
2021/04/28 13:03:23;;;;;;;6.50;2.65;;;24.50;27.40;;;;;;5106940;28;27498;-60
2021/04/28 13:06:22;;;;;;;8.02;2.55;;;24.40;29.90;;;;;;5106082;28;27423;-61
2021/04/28 13:09:15;;;;;;;5.05;2.47;;;24.40;33.00;;;;;;5105921;28;27320;-68
2021/04/28 13:12:13;;;;;;;5.03;2.42;;;24.60;35.80;;;;;;5106310;28;27395;-61
2021/04/28 13:15:21;;;;;;;3.95;2.45;;;24.70;36.10;;;;;;5106316;28;27431;-61
2021/04/28 13:18:15;;;;;;;4.82;2.80;;;24.80;37.00;;;;;;5105574;28;27443;-60
2021/04/28 13:21:32;;;;;;;5.60;2.35;;;24.90;38.20;;;;;;5106656;28;27478;-61
2021/04/28 13:24:29;;;;;;;7.75;2.08;;;24.90;37.50;;;;;;5106294;28;27472;-61
2021/04/28 13:27:26;;;;;;;4.22;2.60;;;25.00;39.20;;;;;;5106524;28;27352;-68
2021/04/28 13:30:20;;;;;;;5.57;2.35;;;25.10;39.40;;;;;;5106305;28;27375;-60
2021/04/28 13:33:46;;;;;;;5.18;2.55;;;25.10;38.30;;;;;;5102568;28;27333;-61
2021/04/28 13:36:39;;;;;;;8.85;2.50;;;25.30;41.60;;;;;;5105709;28;27579;-69
2021/04/28 13:39:53;;;;;;;6.95;2.65;;;25.40;39.40;;;;;;5102849;28;27408;-61
2021/04/28 13:43:25;;;;;;;13.25;4.70;;;25.50;34.20;;;;;;5102378;28;27407;-61
2021/04/28 13:46:26;;;;;;;6.75;3.55;;;25.50;32.60;;;;;;5105092;28;27474;-61
2021/04/28 13:49:13;;;;;;;6.03;3.00;;;25.30;30.30;;;;;;5105346;28;27394;-62
2021/04/28 13:52:19;;;;;;;2.95;2.63;;;25.20;34.00;;;;;;5105879;28;27430;-62
2021/04/28 13:55:30;;;;;;;4.82;2.85;;;25.10;35.20;;;;;;5105262;28;26943;-61
2021/04/28 13:58:43;;;;;;;3.72;3.17;;;24.90;34.90;;;;;;5104894;28;27374;-61
2021/04/28 14:02:24;;;;;;;5.50;3.10;;;24.70;35.50;;;;;;5104300;28;27984;-61
2021/04/28 14:05:30;;;;;;;4.22;3.10;;;24.70;38.80;;;;;;5104970;28;27478;-62
2021/04/28 14:08:27;;;;;;;8.35;3.58;;;24.60;36.90;;;;;;5105130;28;27453;-61
2021/04/28 14:11:23;;;;;;;5.38;3.50;;;24.70;37.90;;;;;;5105394;27;27478;-61
2021/04/28 14:14:29;;;;;;;4.90;3.13;;;24.70;36.50;;;;;;5105523;28;27444;-61
2021/04/28 14:17:34;;;;;;;7.10;3.25;;;24.70;38.70;;;;;;5105294;28;27398;-61
2021/04/28 14:20:31;;;;;;;6.13;2.63;;;24.80;39.20;;;;;;5104121;28;27342;-61
2021/04/28 14:23:29;;;;;;;5.93;3.10;;;24.80;39.90;;;;;;5105442;28;27366;-60
2021/04/28 14:26:42;;;;;;;4.80;3.30;;;24.80;33.70;;;;;;5089486;28;27464;-61
2021/04/28 14:29:29;;;;;;;2.92;2.33;;;24.80;37.80;;;;;;5105115;28;27344;-68
2021/04/28 14:32:42;;;;;;;4.45;2.50;;;24.90;38.20;;;;;;5104417;28;27596;-61
2021/04/28 14:36:02;;;;;;;7.80;2.55;;;25.00;39.80;;;;;;5102287;28;27309;-62
2021/04/28 14:39:13;;;;;;;5.10;2.22;;;25.10;37.20;;;;;;5105238;28;27461;-61
2021/04/28 14:42:18;;;;;;;4.53;2.00;;;25.10;37.10;;;;;;5101860;28;27351;-62
2021/04/28 14:45:39;;;;;;;4.18;1.92;;;25.10;38.30;;;;;;5085079;28;27477;-61
2021/04/28 14:48:30;;;;;;;3.53;1.92;;;25.10;38.80;;;;;;5101947;28;27399;-62
2021/04/28 14:51:42;;;;;;;3.25;2.33;;;25.10;38.70;;;;;;5090020;28;27499;-61
2021/04/28 14:54:27;;;;;;;2.50;1.98;;;25.20;38.20;;;;;;5101061;28;27337;-68
2021/04/28 14:57:18;;;;;;;3.58;1.65;;;25.20;37.80;;;;;;5104756;28;27390;-61
2021/04/28 15:00:24;;;;;;;6.32;1.88;;;25.30;36.20;;;;;;5104826;28;27466;-61
2021/04/28 15:03:30;;;;;;;3.78;2.20;;;25.30;36.70;;;;;;5104599;28;27849;-61
2021/04/28 15:06:35;;;;;;;5.90;2.22;;;25.20;37.20;;;;;;5103602;28;27429;-62
2021/04/28 15:09:32;;;;;;;3.53;1.63;;;25.20;37.30;;;;;;5104840;28;27316;-60
2021/04/28 15:12:24;;;;;;;3.35;1.65;;;25.20;38.10;;;;;;5105041;28;27332;-61
2021/04/28 15:15:21;;;;;;;5.85;2.20;;;25.20;37.00;;;;;;5104639;28;27316;-60
2021/04/28 15:18:18;;;;;;;16.70;2.50;;;25.20;36.70;;;;;;5104449;28;27364;-61
2021/04/28 15:21:24;;;;;;;3.22;2.05;;;25.20;35.90;;;;;;5104790;28;27326;-62
2021/04/28 15:24:36;;;;;;;7.13;3.67;;;25.10;37.40;;;;;;5107251;28;27459;-63
2021/04/28 15:27:54;;;;;;;4.80;3.78;;;25.10;38.20;;;;;;5107025;28;27892;-61
2021/04/28 15:31:14;;;;;;;4.00;2.38;;;25.10;37.40;;;;;;5104893;28;27481;-68
2021/04/28 15:34:11;;;;;;;3.05;2.20;;;25.00;37.40;;;;;;5107950;28;27556;-62
2021/04/28 15:37:02;;;;;;;5.53;2.25;;;24.90;37.90;;;;;;5108212;28;27435;-62
2021/04/28 15:39:59;;;;;;;10.93;2.80;;;24.90;38.10;;;;;;5107803;28;27483;-62
2021/04/28 15:42:49;;;;;;;5.72;2.17;;;24.80;37.20;;;;;;5103662;28;27407;-61
2021/04/28 15:45:58;;;;;;;4.18;2.08;;;24.70;40.00;;;;;;5107807;28;27508;-60
2021/04/28 15:48:46;;;;;;;3.38;2.00;;;24.60;39.80;;;;;;5107393;28;26901;-69
2021/04/28 15:51:37;;;;;;;3.70;1.90;;;24.50;39.40;;;;;;5107425;28;27406;-61
2021/04/28 15:54:28;;;;;;;4.70;1.85;;;24.40;39.20;;;;;;5107693;28;27473;-60
2021/04/28 15:57:26;;;;;;;4.40;2.00;;;24.30;39.40;;;;;;5107608;28;27353;-67
2021/04/28 16:00:23;;;;;;;2.67;1.70;;;24.20;39.70;;;;;;5107636;28;27465;-61
2021/04/28 16:03:25;;;;;;;5.32;2.05;;;24.00;39.00;;;;;;5107849;28;27468;-68
2021/04/28 16:06:34;;;;;;;5.53;1.95;;;24.00;40.00;;;;;;5107458;28;27398;-61
2021/04/28 16:09:24;;;;;;;4.05;2.00;;;23.90;39.70;;;;;;5107438;28;27427;-61
2021/04/28 16:12:35;;;;;;;4.40;1.98;;;23.80;39.20;;;;;;5107442;28;26986;-61
2021/04/28 16:15:37;;;;;;;6.47;2.13;;;23.80;39.10;;;;;;5107214;28;27382;-60
2021/04/28 16:18:31;;;;;;;2.10;1.52;;;23.70;39.90;;;;;;5107130;28;27410;-60
2021/04/28 16:21:31;;;;;;;3.55;1.90;;;23.60;39.70;;;;;;5092535;28;27401;-61
2021/04/28 16:24:44;;;;;;;8.95;4.03;;;23.60;41.20;;;;;;5107415;28;27336;-61
2021/04/28 16:27:55;;;;;;;5.22;2.03;;;23.50;39.70;;;;;;5103886;28;28037;-60
2021/04/28 16:30:45;;;;;;;5.72;1.90;;;23.50;39.70;;;;;;5107456;28;27495;-60
2021/04/28 16:33:36;;;;;;;3.08;2.25;;;23.40;40.20;;;;;;5106821;27;27323;-67
2021/04/28 16:36:23;;;;;;;5.20;3.03;;;23.40;40.60;;;;;;5106904;28;27384;-60
2021/04/28 16:39:29;;;;;;;4.47;2.67;;;23.30;40.00;;;;;;5107244;28;27420;-60
2021/04/28 16:42:20;;;;;;;10.68;3.00;;;23.20;40.10;;;;;;5106531;28;27434;-61
2021/04/28 16:45:32;;;;;;;6.30;2.42;;;23.10;38.60;;;;;;5106232;28;27661;-60
2021/04/28 16:48:23;;;;;;;7.95;2.38;;;23.00;39.40;;;;;;5107068;28;27328;-62
2021/04/28 16:51:36;;;;;;;6.22;2.63;;;22.90;38.80;;;;;;5106809;28;27407;-60
2021/04/28 16:54:38;;;;;;;4.57;2.35;;;22.80;38.60;;;;;;5106690;28;27393;-62
2021/04/28 16:57:29;;;;;;;4.30;3.30;;;22.70;39.70;;;;;;5107113;28;27352;-60
2021/04/28 17:00:26;;;;;;;3.53;2.70;;;22.60;40.90;;;;;;5106224;28;27373;-60